createdAt,value
2018-03-28T00:01:00.014Z,7.80
2018-03-28T00:03:31.038Z,7.70
2018-03-28T00:05:58.483Z,7.70
2018-03-28T00:08:26.690Z,7.60
2018-03-28T00:10:54.149Z,7.70
2018-03-28T00:13:21.602Z,7.70
2018-03-28T00:15:49.063Z,7.60
2018-03-28T00:18:16.516Z,7.60
2018-03-28T00:20:43.953Z,7.60
2018-03-28T00:23:12.214Z,7.60
2018-03-28T00:25:39.638Z,7.60
2018-03-28T00:28:07.119Z,7.50
2018-03-28T00:30:34.573Z,7.50
2018-03-28T00:33:02.028Z,7.50
2018-03-28T00:35:29.461Z,7.50
2018-03-28T00:37:56.913Z,7.50
2018-03-28T00:40:25.134Z,7.60
2018-03-28T00:42:53.347Z,7.60
2018-03-28T00:45:20.807Z,7.60
2018-03-28T00:47:48.263Z,7.60
2018-03-28T00:50:15.735Z,7.70
2018-03-28T00:52:43.169Z,7.70
2018-03-28T00:55:10.612Z,7.70
2018-03-28T00:57:38.057Z,7.80
2018-03-28T01:00:05.550Z,7.80
2018-03-28T01:02:33.009Z,7.80
2018-03-28T01:05:00.471Z,7.80
2018-03-28T01:07:27.914Z,7.90
2018-03-28T01:09:55.377Z,7.80
2018-03-28T01:12:22.844Z,7.90
2018-03-28T01:14:50.299Z,7.90
2018-03-28T01:17:17.743Z,7.90
2018-03-28T01:19:45.202Z,7.80
2018-03-28T01:22:12.644Z,7.90
2018-03-28T01:24:40.122Z,7.90
2018-03-28T01:27:07.560Z,7.90
2018-03-28T01:29:35.041Z,7.90
2018-03-28T01:32:02.499Z,7.90
2018-03-28T01:34:29.968Z,7.90
2018-03-28T01:36:57.410Z,7.80
2018-03-28T01:39:24.867Z,7.80
2018-03-28T01:41:52.327Z,7.80
2018-03-28T01:44:19.782Z,7.90
2018-03-28T01:46:47.239Z,7.90
2018-03-28T01:49:14.715Z,7.90
2018-03-28T01:51:42.163Z,7.90
2018-03-28T01:54:09.620Z,7.90
2018-03-28T01:56:37.070Z,7.90
2018-03-28T01:59:04.538Z,7.80
2018-03-28T02:01:31.984Z,7.90
2018-03-28T02:03:59.443Z,7.80
2018-03-28T02:06:26.892Z,7.80
2018-03-28T02:08:54.351Z,7.80
2018-03-28T02:11:21.787Z,7.80
2018-03-28T02:13:50.013Z,7.90
2018-03-28T02:16:18.244Z,7.90
2018-03-28T02:18:46.449Z,7.80
2018-03-28T02:21:15.950Z,7.80
2018-03-28T02:23:43.409Z,7.80
2018-03-28T02:26:10.857Z,7.80
2018-03-28T02:28:38.334Z,7.80
2018-03-28T02:31:05.778Z,7.90
2018-03-28T02:33:33.231Z,7.80
2018-03-28T02:36:00.689Z,7.90
2018-03-28T02:38:28.134Z,7.90
2018-03-28T02:40:55.590Z,7.90
2018-03-28T02:43:23.027Z,8.00
2018-03-28T02:45:51.254Z,8.00
2018-03-28T02:48:18.716Z,8.00
2018-03-28T02:50:47.175Z,8.00
2018-03-28T02:53:14.635Z,8.10
2018-03-28T02:55:42.091Z,8.10
2018-03-28T02:58:09.543Z,8.10
2018-03-28T03:00:37.026Z,8.10
2018-03-28T03:03:04.475Z,8.20
2018-03-28T03:05:31.934Z,8.20
2018-03-28T03:07:59.382Z,8.30
2018-03-28T03:10:26.827Z,8.30
2018-03-28T03:12:54.258Z,8.30
2018-03-28T03:15:22.491Z,8.30
2018-03-28T03:17:49.942Z,8.30
2018-03-28T03:20:18.162Z,8.20
2018-03-28T03:22:46.380Z,8.30
2018-03-28T03:25:13.916Z,8.20
2018-03-28T03:27:41.364Z,8.30
2018-03-28T03:30:10.596Z,8.40
2018-03-28T03:32:38.049Z,8.40
2018-03-28T03:35:05.509Z,8.40
2018-03-28T03:37:32.960Z,8.40
2018-03-28T03:40:00.436Z,8.40
2018-03-28T03:42:28.876Z,8.40
2018-03-28T03:44:56.337Z,8.40
2018-03-28T03:47:23.778Z,8.40
2018-03-28T03:49:52.000Z,8.50
2018-03-28T03:52:19.443Z,8.40
2018-03-28T03:54:46.913Z,8.40
2018-03-28T03:57:14.367Z,8.40
2018-03-28T03:59:41.821Z,8.40
2018-03-28T04:02:09.282Z,8.40
2018-03-28T04:04:36.749Z,8.40
2018-03-28T04:07:04.207Z,8.40
2018-03-28T04:09:31.670Z,8.50
2018-03-28T04:11:59.893Z,8.50
2018-03-28T04:14:28.120Z,8.60
2018-03-28T04:16:55.566Z,8.60
2018-03-28T04:19:23.022Z,8.70
2018-03-28T04:21:50.471Z,8.70
2018-03-28T04:24:17.935Z,8.70
2018-03-28T04:26:45.383Z,8.80
2018-03-28T04:29:12.854Z,8.80
2018-03-28T04:31:40.317Z,8.80
2018-03-28T04:34:07.779Z,8.80
2018-03-28T04:36:35.282Z,8.80
2018-03-28T04:39:02.695Z,8.80
2018-03-28T04:41:31.139Z,8.80
2018-03-28T04:43:58.583Z,8.80
2018-03-28T04:46:26.806Z,8.90
2018-03-28T04:48:54.262Z,8.90
2018-03-28T04:51:21.706Z,8.90
2018-03-28T04:53:49.162Z,8.90
2018-03-28T04:56:16.614Z,8.90
2018-03-28T04:58:44.083Z,8.90
2018-03-28T05:01:11.523Z,9.00
2018-03-28T05:03:38.973Z,8.90
2018-03-28T05:06:06.427Z,9.00
2018-03-28T05:08:33.872Z,9.00
2018-03-28T05:11:01.332Z,9.00
2018-03-28T05:13:29.542Z,9.00
2018-03-28T05:15:57.070Z,9.00
2018-03-28T05:18:24.506Z,9.10
2018-03-28T05:20:52.725Z,9.20
2018-03-28T05:23:20.173Z,9.10
2018-03-28T05:25:47.625Z,9.10
2018-03-28T05:28:15.081Z,9.20
2018-03-28T05:30:42.552Z,9.10
2018-03-28T05:33:10.172Z,9.10
2018-03-28T05:35:37.840Z,9.20
2018-03-28T05:38:06.191Z,9.10
2018-03-28T05:40:34.023Z,9.20
2018-03-28T05:43:01.747Z,9.10
2018-03-28T05:45:29.283Z,9.10
2018-03-28T05:47:56.960Z,9.20
2018-03-28T05:50:25.368Z,9.20
2018-03-28T05:52:53.565Z,9.30
2018-03-28T05:55:21.058Z,9.20
2018-03-28T05:57:49.302Z,9.40
2018-03-28T06:00:16.750Z,9.40
2018-03-28T06:02:44.192Z,9.40
2018-03-28T06:05:11.630Z,9.40
2018-03-28T06:07:39.060Z,9.40
2018-03-28T06:10:06.495Z,9.40
2018-03-28T06:12:33.944Z,9.40
2018-03-28T06:15:01.394Z,9.40
2018-03-28T06:17:28.853Z,9.50
2018-03-28T06:19:56.308Z,9.50
2018-03-28T06:22:23.800Z,9.40
2018-03-28T06:24:51.292Z,9.40
2018-03-28T06:27:19.548Z,9.40
2018-03-28T06:29:47.133Z,9.40
2018-03-28T06:32:15.502Z,9.40
2018-03-28T06:34:42.939Z,9.40
2018-03-28T06:37:10.405Z,9.30
2018-03-28T06:39:37.899Z,9.20
2018-03-28T06:42:05.328Z,9.30
2018-03-28T06:44:33.546Z,9.30
2018-03-28T06:47:01.001Z,9.30
2018-03-28T06:49:28.429Z,9.40
2018-03-28T06:51:58.694Z,9.50
2018-03-28T06:54:26.136Z,9.50
2018-03-28T06:56:54.583Z,9.60
2018-03-28T06:59:22.773Z,9.70
2018-03-28T07:01:50.213Z,9.70
2018-03-28T07:04:18.516Z,9.70
2018-03-28T07:06:45.946Z,9.70
2018-03-28T07:09:14.220Z,9.70
2018-03-28T07:11:42.515Z,9.60
2018-03-28T07:14:09.967Z,9.60
2018-03-28T07:16:38.190Z,9.60
2018-03-28T07:19:05.640Z,9.50
2018-03-28T07:21:33.082Z,9.60
2018-03-28T07:24:00.535Z,9.50
2018-03-28T07:26:27.972Z,9.50
2018-03-28T07:28:55.415Z,9.50
2018-03-28T07:31:23.701Z,9.50
2018-03-28T07:33:51.908Z,9.50
2018-03-28T07:36:19.368Z,9.50
2018-03-28T07:38:46.806Z,9.50
2018-03-28T07:41:14.256Z,9.50
2018-03-28T07:43:41.869Z,9.50
2018-03-28T07:46:09.410Z,9.50
2018-03-28T07:48:36.857Z,9.40
2018-03-28T07:51:04.299Z,9.50
2018-03-28T07:53:31.737Z,9.60
2018-03-28T07:56:00.011Z,9.70
2018-03-28T07:58:28.277Z,9.70
2018-03-28T08:00:55.665Z,9.60
2018-03-28T08:03:23.118Z,9.70
2018-03-28T08:05:51.317Z,9.70
2018-03-28T08:08:18.763Z,9.60
2018-03-28T08:10:46.189Z,9.60
2018-03-28T08:13:14.413Z,9.70
2018-03-28T08:15:41.834Z,9.70
2018-03-28T08:18:09.294Z,9.70
2018-03-28T08:20:36.725Z,9.80
2018-03-28T08:23:04.164Z,9.90
2018-03-28T08:25:31.616Z,10.00
2018-03-28T08:27:59.073Z,10.00
2018-03-28T08:30:26.581Z,10.10
2018-03-28T08:32:54.006Z,10.00
2018-03-28T08:35:21.413Z,10.00
2018-03-28T08:37:48.856Z,10.10
2018-03-28T08:40:16.288Z,10.20
2018-03-28T08:42:44.514Z,10.10
2018-03-28T08:45:11.965Z,10.10
2018-03-28T08:47:39.417Z,10.10
2018-03-28T08:50:06.862Z,10.00
2018-03-28T08:52:34.316Z,10.10
2018-03-28T08:55:01.771Z,10.00
2018-03-28T08:57:29.220Z,10.00
2018-03-28T08:59:57.429Z,9.90
2018-03-28T09:02:24.879Z,9.90
2018-03-28T09:04:52.334Z,10.00
2018-03-28T09:07:19.789Z,10.00
2018-03-28T09:09:47.226Z,9.90
2018-03-28T09:12:15.504Z,10.00
2018-03-28T09:14:42.943Z,10.00
2018-03-28T09:17:11.152Z,10.00
2018-03-28T09:19:38.601Z,9.90
2018-03-28T09:22:06.041Z,10.00
2018-03-28T09:24:34.249Z,9.90
2018-03-28T09:27:01.709Z,9.90
2018-03-28T09:29:29.139Z,9.90
2018-03-28T09:31:56.579Z,9.80
2018-03-28T09:34:24.797Z,9.80
2018-03-28T09:36:52.252Z,9.80
2018-03-28T09:39:19.702Z,9.80
2018-03-28T09:41:47.150Z,9.90
2018-03-28T09:44:14.601Z,9.90
2018-03-28T09:46:43.033Z,9.90
2018-03-28T09:49:10.485Z,9.90
2018-03-28T09:51:37.942Z,10.00
2018-03-28T09:54:05.386Z,10.10
2018-03-28T09:56:32.826Z,10.10
2018-03-28T09:59:00.323Z,10.00
2018-03-28T10:01:29.631Z,10.00
2018-03-28T10:04:02.753Z,9.90
2018-03-28T10:06:32.978Z,10.00
2018-03-28T10:09:01.210Z,10.00
2018-03-28T10:11:28.699Z,10.00
2018-03-28T10:13:56.136Z,10.00
2018-03-28T10:16:23.608Z,10.00
2018-03-28T10:18:51.864Z,10.00
2018-03-28T10:21:19.308Z,10.00
2018-03-28T10:23:46.771Z,10.00
2018-03-28T10:26:14.243Z,10.00
2018-03-28T10:28:41.705Z,9.90
2018-03-28T10:31:09.150Z,9.90
2018-03-28T10:33:36.694Z,10.00
2018-03-28T10:36:04.150Z,9.90
2018-03-28T10:38:31.603Z,10.00
2018-03-28T10:40:59.044Z,10.10
2018-03-28T10:43:26.549Z,10.10
2018-03-28T10:45:53.997Z,10.20
2018-03-28T10:48:21.445Z,10.40
2018-03-28T10:50:48.907Z,10.60
2018-03-28T10:53:16.354Z,10.70
2018-03-28T10:55:43.811Z,10.90
2018-03-28T10:58:11.312Z,10.90
2018-03-28T11:00:38.811Z,10.80
2018-03-28T11:03:06.258Z,10.90
2018-03-28T11:05:33.706Z,10.80
2018-03-28T11:08:01.169Z,10.90
2018-03-28T11:10:29.380Z,10.90
2018-03-28T11:12:56.826Z,10.90
2018-03-28T11:15:24.284Z,10.90
2018-03-28T11:17:51.734Z,10.90
2018-03-28T11:20:19.194Z,10.90
2018-03-28T11:22:46.666Z,11.00
2018-03-28T11:25:14.149Z,11.00
2018-03-28T11:27:42.584Z,11.20
2018-03-28T11:30:10.041Z,11.20
2018-03-28T11:32:37.554Z,11.30
2018-03-28T11:35:04.946Z,11.50
2018-03-28T11:37:32.518Z,11.60
2018-03-28T11:39:59.978Z,11.70
2018-03-28T11:42:27.437Z,11.80
2018-03-28T11:44:55.655Z,11.90
2018-03-28T11:47:23.109Z,11.90
2018-03-28T11:49:50.565Z,11.90
2018-03-28T11:52:18.018Z,11.90
2018-03-28T11:54:45.488Z,12.00
2018-03-28T11:57:13.700Z,12.10
2018-03-28T11:59:41.161Z,12.10
2018-03-28T12:02:08.674Z,12.10
2018-03-28T12:04:36.177Z,12.40
2018-03-28T12:07:03.565Z,12.80
2018-03-28T12:09:31.052Z,13.00
2018-03-28T12:11:58.604Z,13.10
2018-03-28T12:14:26.102Z,13.30
2018-03-28T12:16:53.542Z,13.40
2018-03-28T12:19:22.222Z,13.60
2018-03-28T12:21:49.860Z,13.50
2018-03-28T12:24:17.389Z,13.70
2018-03-28T12:26:44.905Z,13.80
2018-03-28T12:29:13.177Z,13.80
2018-03-28T12:31:41.463Z,13.80
2018-03-28T12:34:09.943Z,13.80
2018-03-28T12:36:38.192Z,13.70
2018-03-28T12:39:05.631Z,13.70
2018-03-28T12:41:33.072Z,13.60
2018-03-28T12:44:00.517Z,13.50
2018-03-28T12:46:27.975Z,13.60
2018-03-28T12:48:56.316Z,13.60
2018-03-28T12:51:24.577Z,13.50
2018-03-28T12:53:52.012Z,13.50
2018-03-28T12:56:19.469Z,13.30
2018-03-28T12:58:46.962Z,13.10
2018-03-28T13:01:15.186Z,13.10
2018-03-28T13:03:42.639Z,13.10
2018-03-28T13:06:10.098Z,13.10
2018-03-28T13:08:37.556Z,13.00
2018-03-28T13:11:06.194Z,12.80
2018-03-28T13:13:34.661Z,12.70
2018-03-28T13:16:02.124Z,12.70
2018-03-28T13:18:29.591Z,12.60
2018-03-28T13:20:57.789Z,12.40
2018-03-28T13:23:25.368Z,12.40
2018-03-28T13:25:53.930Z,12.10
2018-03-28T13:28:21.481Z,12.10
2018-03-28T13:30:48.988Z,12.00
2018-03-28T13:33:16.502Z,12.10
2018-03-28T13:35:44.769Z,12.00
2018-03-28T13:38:13.063Z,11.90
2018-03-28T13:40:41.533Z,11.90
2018-03-28T13:43:09.820Z,12.00
2018-03-28T13:45:37.375Z,12.00
2018-03-28T13:48:05.676Z,11.80
2018-03-28T13:50:34.226Z,11.80
2018-03-28T13:53:02.525Z,11.70
2018-03-28T13:55:31.000Z,11.70
2018-03-28T13:57:58.458Z,11.70
2018-03-28T14:00:25.892Z,11.60
2018-03-28T14:02:55.206Z,11.40
2018-03-28T14:05:22.649Z,11.40
2018-03-28T14:07:50.955Z,11.30
2018-03-28T14:10:18.442Z,11.30
2018-03-28T14:12:45.981Z,11.30
2018-03-28T14:15:13.431Z,11.30
2018-03-28T14:17:40.876Z,11.20
2018-03-28T14:20:08.329Z,11.10
2018-03-28T14:22:35.770Z,11.10
2018-03-28T14:25:03.993Z,11.00
2018-03-28T14:27:31.614Z,11.00
2018-03-28T14:29:59.889Z,11.00
2018-03-28T14:32:28.097Z,10.90
2018-03-28T14:34:55.567Z,10.90
2018-03-28T14:37:23.017Z,10.80
2018-03-28T14:39:50.478Z,10.70
2018-03-28T14:42:17.937Z,10.70
2018-03-28T14:44:45.446Z,10.70
2018-03-28T14:47:13.645Z,10.60
2018-03-28T14:49:41.110Z,10.60
2018-03-28T14:52:08.554Z,10.60
2018-03-28T14:54:36.760Z,10.50
2018-03-28T14:57:04.270Z,10.50
2018-03-28T14:59:32.495Z,10.40
2018-03-28T15:01:59.939Z,10.40
2018-03-28T15:04:27.404Z,10.30
2018-03-28T15:06:54.859Z,10.30
2018-03-28T15:09:22.310Z,10.20
2018-03-28T15:11:49.740Z,10.20
2018-03-28T15:14:17.957Z,10.10
2018-03-28T15:16:45.510Z,10.10
2018-03-28T15:19:12.955Z,10.10
2018-03-28T15:21:40.393Z,10.10
2018-03-28T15:24:07.834Z,10.00
2018-03-28T15:26:36.052Z,9.90
2018-03-28T15:29:03.485Z,9.90
2018-03-28T15:31:30.938Z,9.90
2018-03-28T15:33:58.451Z,9.90
2018-03-28T15:36:25.911Z,9.90
2018-03-28T15:38:53.438Z,9.90
2018-03-28T15:41:21.032Z,9.90
2018-03-28T15:43:48.485Z,10.00
2018-03-28T15:46:15.938Z,9.90
2018-03-28T15:48:43.389Z,9.90
2018-03-28T15:51:10.929Z,9.90
2018-03-28T15:53:38.452Z,9.90
2018-03-28T15:56:05.893Z,9.90
2018-03-28T15:58:33.344Z,9.90
2018-03-28T16:01:00.810Z,9.90
2018-03-28T16:03:28.284Z,9.90
2018-03-28T16:05:55.716Z,9.90
2018-03-28T16:08:26.225Z,9.90
2018-03-28T16:10:53.688Z,9.80
2018-03-28T16:13:21.213Z,9.80
2018-03-28T16:15:48.728Z,9.80
2018-03-28T16:18:16.156Z,9.90
2018-03-28T16:20:43.607Z,9.90
2018-03-28T16:23:11.887Z,10.00
2018-03-28T16:25:39.469Z,9.90
2018-03-28T16:28:06.941Z,10.00
2018-03-28T16:30:34.373Z,10.10
2018-03-28T16:33:02.921Z,10.10
2018-03-28T16:35:30.437Z,10.10
2018-03-28T16:37:57.945Z,10.10
2018-03-28T16:40:25.407Z,10.10
2018-03-28T16:42:52.854Z,10.10
2018-03-28T16:45:20.311Z,10.10
2018-03-28T16:47:47.745Z,10.10
2018-03-28T16:50:15.978Z,10.10
2018-03-28T16:52:43.416Z,10.10
2018-03-28T16:55:10.878Z,10.10
2018-03-28T16:57:38.334Z,10.10
2018-03-28T17:00:05.798Z,10.10
2018-03-28T17:02:33.265Z,10.10
2018-03-28T17:05:00.716Z,10.10
2018-03-28T17:07:28.229Z,10.10
2018-03-28T17:09:55.689Z,10.20
2018-03-28T17:12:23.142Z,10.20
2018-03-28T17:14:51.396Z,10.30
2018-03-28T17:17:18.848Z,10.30
2018-03-28T17:19:46.327Z,10.20
2018-03-28T17:22:14.563Z,10.30
2018-03-28T17:24:42.024Z,10.30
2018-03-28T17:27:09.477Z,10.30
2018-03-28T17:29:36.953Z,10.30
2018-03-28T17:32:04.455Z,10.30
2018-03-28T17:34:31.929Z,10.20
2018-03-28T17:36:59.380Z,10.30
2018-03-28T17:39:26.844Z,10.30
2018-03-28T17:41:54.381Z,10.30
2018-03-28T17:44:21.821Z,10.30
2018-03-28T17:46:50.140Z,10.30
2018-03-28T17:49:17.597Z,10.30
2018-03-28T17:51:45.051Z,10.30
2018-03-28T17:54:12.506Z,10.30
2018-03-28T17:56:39.963Z,10.30
2018-03-28T17:59:07.411Z,10.40
2018-03-28T18:01:34.876Z,10.40
2018-03-28T18:04:02.315Z,10.40
2018-03-28T18:06:29.773Z,10.40
2018-03-28T18:08:57.220Z,10.40
2018-03-28T18:11:24.708Z,10.40
2018-03-28T18:13:52.156Z,10.40
2018-03-28T18:16:19.625Z,10.40
2018-03-28T18:18:47.081Z,10.40
2018-03-28T18:21:14.521Z,10.40
2018-03-28T18:23:41.996Z,10.40
2018-03-28T18:26:09.447Z,10.40
2018-03-28T18:28:36.995Z,10.30
2018-03-28T18:31:04.436Z,10.30
2018-03-28T18:33:32.763Z,10.30
2018-03-28T18:36:00.967Z,10.30
2018-03-28T18:38:28.456Z,10.30
2018-03-28T18:40:55.906Z,10.30
2018-03-28T18:43:24.194Z,10.30
2018-03-28T18:45:51.634Z,10.30
2018-03-28T18:48:19.853Z,10.20
2018-03-28T18:50:47.307Z,10.20
2018-03-28T18:53:14.768Z,10.20
2018-03-28T18:55:42.229Z,10.20
2018-03-28T18:58:09.673Z,10.20
2018-03-28T19:00:37.130Z,10.20
2018-03-28T19:03:04.581Z,10.10
2018-03-28T19:05:32.035Z,10.20
2018-03-28T19:07:59.503Z,10.20
2018-03-28T19:10:26.953Z,10.30
2018-03-28T19:12:54.397Z,10.40
2018-03-28T19:15:21.851Z,10.40
2018-03-28T19:17:50.065Z,10.50
2018-03-28T19:20:17.523Z,10.40
2018-03-28T19:22:44.982Z,10.50
2018-03-28T19:25:12.459Z,10.50
2018-03-28T19:27:39.914Z,10.50
2018-03-28T19:30:07.349Z,10.50
2018-03-28T19:32:34.801Z,10.50
2018-03-28T19:35:02.251Z,10.50
2018-03-28T19:37:29.698Z,10.60
2018-03-28T19:39:57.141Z,10.60
2018-03-28T19:42:24.605Z,10.60
2018-03-28T19:44:52.063Z,10.60
2018-03-28T19:47:19.505Z,10.60
2018-03-28T19:49:47.767Z,10.60
2018-03-28T19:52:15.987Z,10.60
2018-03-28T19:54:43.474Z,10.60
2018-03-28T19:57:11.002Z,10.60
2018-03-28T19:59:38.488Z,10.60
2018-03-28T20:02:05.930Z,10.60
2018-03-28T20:04:33.402Z,10.60
2018-03-28T20:07:00.863Z,10.60
2018-03-28T20:09:28.318Z,10.60
2018-03-28T20:11:55.763Z,10.60
2018-03-28T20:14:23.253Z,10.60
2018-03-28T20:16:50.705Z,10.40
2018-03-28T20:19:18.217Z,10.30
2018-03-28T20:21:45.749Z,10.30
2018-03-28T20:24:13.983Z,10.20
2018-03-28T20:26:42.496Z,10.10
2018-03-28T20:29:10.715Z,9.90
2018-03-28T20:31:38.254Z,9.90
2018-03-28T20:34:05.711Z,9.80
2018-03-28T20:36:33.159Z,9.70
2018-03-28T20:39:01.391Z,9.40
2018-03-28T20:41:28.883Z,9.40
2018-03-28T20:43:57.084Z,9.20
2018-03-28T20:46:24.521Z,9.20
2018-03-28T20:48:52.723Z,9.10
2018-03-28T20:51:20.149Z,9.10
2018-03-28T20:53:49.356Z,9.10
2018-03-28T20:56:17.595Z,9.10
2018-03-28T20:58:45.046Z,9.00
2018-03-28T21:01:12.553Z,9.00
2018-03-28T21:03:40.003Z,8.80
2018-03-28T21:06:08.310Z,8.70
2018-03-28T21:08:35.782Z,8.70
2018-03-28T21:11:03.216Z,8.60
2018-03-28T21:13:30.692Z,8.50
2018-03-28T21:15:58.141Z,8.40
2018-03-28T21:18:25.589Z,8.40
2018-03-28T21:20:53.033Z,8.40
2018-03-28T21:23:20.495Z,8.20
2018-03-28T21:25:47.952Z,8.10
2018-03-28T21:28:15.381Z,8.00
2018-03-28T21:30:43.585Z,7.90
2018-03-28T21:33:11.043Z,7.90
2018-03-28T21:35:38.481Z,7.90
2018-03-28T21:38:06.706Z,7.90
2018-03-28T21:40:34.159Z,7.90
2018-03-28T21:43:01.618Z,7.90
2018-03-28T21:45:29.062Z,7.80
2018-03-28T21:47:56.505Z,7.70
2018-03-28T21:50:23.936Z,7.70
2018-03-28T21:52:52.150Z,7.70
2018-03-28T21:55:19.595Z,7.60
2018-03-28T21:57:47.040Z,7.60
2018-03-28T22:00:14.489Z,7.60
2018-03-28T22:02:42.682Z,7.40
2018-03-28T22:05:10.136Z,7.40
2018-03-28T22:07:37.565Z,7.40
2018-03-28T22:10:05.776Z,7.40
2018-03-28T22:12:33.217Z,7.30
2018-03-28T22:15:01.428Z,7.20
2018-03-28T22:17:28.857Z,7.20
2018-03-28T22:19:56.301Z,7.20
2018-03-28T22:22:24.557Z,7.30
2018-03-28T22:24:52.002Z,7.30
2018-03-28T22:27:19.450Z,7.30
2018-03-28T22:29:47.014Z,7.20
2018-03-28T22:32:14.461Z,7.20
2018-03-28T22:34:41.906Z,7.20
2018-03-28T22:37:09.357Z,7.20
2018-03-28T22:39:36.795Z,7.30
2018-03-28T22:42:04.270Z,7.30
2018-03-28T22:44:31.716Z,7.20
2018-03-28T22:46:59.146Z,7.10
2018-03-28T22:49:27.349Z,7.20
2018-03-28T22:51:54.785Z,7.20
2018-03-28T22:54:23.994Z,7.20
2018-03-28T22:56:52.187Z,7.10
2018-03-28T22:59:19.629Z,7.10
2018-03-28T23:01:47.076Z,7.00
2018-03-28T23:04:15.307Z,7.00
2018-03-28T23:06:42.753Z,7.00
2018-03-28T23:09:10.204Z,7.00
2018-03-28T23:11:37.649Z,7.00
2018-03-28T23:14:05.090Z,6.90
2018-03-28T23:16:32.535Z,7.00
2018-03-28T23:19:00.741Z,6.90
2018-03-28T23:21:28.184Z,6.90
2018-03-28T23:23:55.622Z,6.90
2018-03-28T23:26:23.838Z,6.80
2018-03-28T23:28:51.285Z,6.80
2018-03-28T23:31:18.750Z,6.70
2018-03-28T23:33:46.178Z,6.70
2018-03-28T23:36:13.614Z,6.70
2018-03-28T23:38:41.831Z,6.70
2018-03-28T23:41:09.293Z,6.70
2018-03-28T23:43:36.736Z,6.70
2018-03-28T23:46:04.178Z,6.80
2018-03-28T23:48:31.620Z,6.70
2018-03-28T23:50:59.842Z,6.70
2018-03-28T23:53:27.287Z,6.70
2018-03-28T23:55:54.742Z,6.60
2018-03-28T23:58:22.174Z,6.70
